Time;durP1;ratioP1;P1;durP2;ratioP2;P2;SDS_P1;SDS_P2;PMS_P1;PMS_P2;Temp;Humidity;BMP_temperature;BMP_pressure;BME280_temperature;BME280_humidity;BME280_pressure;Samples;Min_cycle;Max_cycle;Signal;HPM_P1;HPM_P2
2021/10/24 00:00:53;;;;;;;0.00;0.00;;;6.70;99.90;;;;;;4936657;29;20152;-79
2021/10/24 00:03:19;;;;;;;0.00;0.00;;;6.60;99.90;;;;;;4937988;29;20036;-79
2021/10/24 00:05:44;;;;;;;1.17;0.85;;;6.60;99.90;;;;;;4936910;29;20043;-79
2021/10/24 00:08:10;;;;;;;0.00;0.00;;;6.60;99.90;;;;;;4936915;29;20028;-79
2021/10/24 00:10:36;;;;;;;0.00;0.00;;;6.50;99.90;;;;;;4936818;29;20035;-79
2021/10/24 00:13:02;;;;;;;0.00;0.00;;;6.50;99.90;;;;;;4937681;29;20031;-79
2021/10/24 00:15:28;;;;;;;0.10;0.10;;;6.50;99.90;;;;;;4936582;29;20028;-79
2021/10/24 00:17:53;;;;;;;0.00;0.00;;;6.40;99.90;;;;;;4937905;29;20099;-79
2021/10/24 00:20:19;;;;;;;0.00;0.00;;;6.40;99.90;;;;;;4937770;29;20082;-79
2021/10/24 00:22:45;;;;;;;0.32;0.32;;;6.40;99.90;;;;;;4920734;29;20024;-79
2021/10/24 00:25:11;;;;;;;0.40;0.32;;;6.40;99.90;;;;;;4937723;29;20028;-79
2021/10/24 00:27:36;;;;;;;0.00;0.00;;;6.40;99.90;;;;;;4936105;29;20062;-79
2021/10/24 00:30:04;;;;;;;2.78;0.43;;;6.40;99.90;;;;;;4936308;29;20487;-79
2021/10/24 00:32:30;;;;;;;0.05;0.05;;;6.40;99.90;;;;;;4937592;29;20024;-79
2021/10/24 00:34:55;;;;;;;0.00;0.00;;;6.40;99.90;;;;;;4937952;29;20028;-79
2021/10/24 00:37:21;;;;;;;0.00;0.00;;;6.30;99.90;;;;;;4937754;29;20466;-79
2021/10/24 00:39:46;;;;;;;0.00;0.00;;;6.30;99.90;;;;;;4937136;29;20455;-79
2021/10/24 00:42:12;;;;;;;0.20;0.20;;;6.30;99.90;;;;;;4937418;29;20114;-79
2021/10/24 00:44:38;;;;;;;0.00;0.00;;;6.20;99.90;;;;;;4936353;29;20127;-79
2021/10/24 00:47:06;;;;;;;0.00;0.00;;;6.20;99.90;;;;;;4937259;29;20039;-79
2021/10/24 00:49:33;;;;;;;0.15;0.10;;;6.10;99.90;;;;;;4936954;29;20509;-79
2021/10/24 00:51:59;;;;;;;0.00;0.00;;;6.00;99.90;;;;;;4937357;29;20458;-79
2021/10/24 00:54:27;;;;;;;0.75;0.45;;;5.90;99.90;;;;;;4920306;29;20020;-79
2021/10/24 00:56:54;;;;;;;0.00;0.00;;;5.90;99.90;;;;;;4936374;29;20122;-79
2021/10/24 00:59:21;;;;;;;0.00;0.00;;;5.80;99.90;;;;;;4937317;29;20024;-79
2021/10/24 01:01:47;;;;;;;5.60;1.52;;;5.80;99.90;;;;;;4937022;29;20079;-79
2021/10/24 01:04:13;;;;;;;0.10;0.10;;;5.90;99.90;;;;;;4937155;29;20067;-79
2021/10/24 01:06:40;;;;;;;0.35;0.17;;;5.90;99.90;;;;;;4935786;29;20039;-79
2021/10/24 01:09:10;;;;;;;0.52;0.52;;;5.90;99.90;;;;;;4936891;29;20039;-79
2021/10/24 01:11:36;;;;;;;0.00;0.00;;;5.90;99.90;;;;;;4935788;29;20051;-79
2021/10/24 01:14:02;;;;;;;0.00;0.00;;;5.90;99.90;;;;;;4936559;29;20448;-79
2021/10/24 01:16:34;;;;;;;0.00;0.00;;;5.80;99.90;;;;;;4936422;29;20054;-79
2021/10/24 01:19:05;;;;;;;4.03;0.22;;;5.80;99.90;;;;;;4937131;29;20542;-79
2021/10/24 01:21:31;;;;;;;0.25;0.25;;;5.70;99.90;;;;;;4936845;29;20071;-79
2021/10/24 01:23:58;;;;;;;0.00;0.00;;;5.70;99.90;;;;;;4936837;29;20035;-79
2021/10/24 01:26:24;;;;;;;0.00;0.00;;;5.70;99.90;;;;;;4932430;29;20130;-79
2021/10/24 01:28:50;;;;;;;0.10;0.10;;;5.60;99.90;;;;;;4935600;29;20052;-79
2021/10/24 01:31:16;;;;;;;0.00;0.00;;;5.50;99.90;;;;;;4919499;29;20028;-79
2021/10/24 01:33:42;;;;;;;0.00;0.00;;;5.50;99.90;;;;;;4938594;29;20059;-79
2021/10/24 01:36:09;;;;;;;0.00;0.00;;;5.50;99.90;;;;;;4936371;29;20506;-79
2021/10/24 01:38:36;;;;;;;0.00;0.00;;;5.50;99.90;;;;;;4922809;29;20477;-79
2021/10/24 01:41:07;;;;;;;0.32;0.32;;;5.50;99.90;;;;;;4936077;29;20030;-79
2021/10/24 01:43:32;;;;;;;0.00;0.00;;;5.50;99.90;;;;;;4936239;29;20123;-79
2021/10/24 01:45:58;;;;;;;0.00;0.00;;;5.50;99.90;;;;;;4936552;29;20110;-79
2021/10/24 01:48:24;;;;;;;0.25;0.25;;;5.40;99.90;;;;;;4936277;29;20027;-79
2021/10/24 01:50:52;;;;;;;0.00;0.00;;;5.40;99.90;;;;;;4935834;29;20123;-79
2021/10/24 01:53:23;;;;;;;0.00;0.00;;;5.30;99.90;;;;;;4935899;29;20495;-79
2021/10/24 01:55:49;;;;;;;0.00;0.00;;;5.30;99.90;;;;;;4936341;29;20032;-79
2021/10/24 01:58:15;;;;;;;0.00;0.00;;;5.30;99.90;;;;;;4935986;29;20087;-79
2021/10/24 02:00:43;;;;;;;0.00;0.00;;;5.20;99.90;;;;;;4936237;29;20035;-79
2021/10/24 02:03:12;;;;;;;0.00;0.00;;;5.20;99.90;;;;;;4918826;29;20114;-79
2021/10/24 02:05:39;;;;;;;0.00;0.00;;;5.20;99.90;;;;;;4934546;29;20069;-79
2021/10/24 02:08:05;;;;;;;0.00;0.00;;;5.20;99.90;;;;;;4933251;29;20030;-79
2021/10/24 02:10:31;;;;;;;0.40;0.40;;;5.10;99.90;;;;;;4936140;29;20031;-79
2021/10/24 02:12:57;;;;;;;0.00;0.00;;;5.10;99.90;;;;;;4935622;29;20027;-79
2021/10/24 02:15:23;;;;;;;0.10;0.10;;;5.10;99.90;;;;;;4935788;29;20031;-79
2021/10/24 02:17:49;;;;;;;0.00;0.00;;;5.10;99.90;;;;;;4934160;29;20035;-79
2021/10/24 02:20:15;;;;;;;0.00;0.00;;;5.10;99.90;;;;;;4935896;29;20032;-79
2021/10/24 02:22:41;;;;;;;3.03;1.95;;;5.00;99.90;;;;;;4935797;29;20031;-78
2021/10/24 02:25:07;;;;;;;0.00;0.00;;;5.10;99.90;;;;;;4934562;29;20512;-79
2021/10/24 02:27:33;;;;;;;0.30;0.30;;;5.10;99.90;;;;;;4934215;29;20059;-79
2021/10/24 02:30:00;;;;;;;0.00;0.00;;;5.10;99.90;;;;;;4935747;29;20027;-79
2021/10/24 02:32:25;;;;;;;0.00;0.00;;;5.10;99.90;;;;;;4921637;29;20023;-79
2021/10/24 02:34:51;;;;;;;0.00;0.00;;;5.20;99.90;;;;;;4935946;29;20446;-79
2021/10/24 02:37:17;;;;;;;0.00;0.00;;;5.20;99.90;;;;;;4935603;29;20024;-79
2021/10/24 02:39:43;;;;;;;0.00;0.00;;;5.20;99.90;;;;;;4935186;29;20036;-79
2021/10/24 02:42:08;;;;;;;0.28;0.28;;;5.20;99.90;;;;;;4935092;29;20487;-79
2021/10/24 02:44:34;;;;;;;0.00;0.00;;;5.30;99.90;;;;;;4935633;29;20024;-79
2021/10/24 02:47:00;;;;;;;0.20;0.20;;;5.30;99.90;;;;;;4935441;29;20028;-79
2021/10/24 02:49:26;;;;;;;0.00;0.00;;;5.30;99.90;;;;;;4933865;29;20062;-79
2021/10/24 02:51:53;;;;;;;0.20;0.20;;;5.30;99.90;;;;;;4935100;29;20027;-79
2021/10/24 02:54:19;;;;;;;0.25;0.08;;;5.30;99.90;;;;;;4935576;29;20032;-79
2021/10/24 02:56:45;;;;;;;0.00;0.00;;;5.30;99.90;;;;;;4933898;29;20510;-78
2021/10/24 02:59:11;;;;;;;0.00;0.00;;;5.30;99.90;;;;;;4935386;29;20031;-79
2021/10/24 03:01:37;;;;;;;0.00;0.00;;;5.30;99.90;;;;;;4935487;29;20426;-79
2021/10/24 03:04:03;;;;;;;0.00;0.00;;;5.20;99.90;;;;;;4935364;29;20039;-79
2021/10/24 03:06:30;;;;;;;0.30;0.20;;;5.30;99.90;;;;;;4914768;29;20074;-79
2021/10/24 03:08:56;;;;;;;0.28;0.13;;;5.30;99.90;;;;;;4915176;29;20028;-79
2021/10/24 03:11:21;;;;;;;0.00;0.00;;;5.20;99.90;;;;;;4916206;29;20031;-79
2021/10/24 03:13:50;;;;;;;0.00;0.00;;;5.20;99.90;;;;;;4916553;29;20020;-79
2021/10/24 03:16:16;;;;;;;0.00;0.00;;;5.10;99.90;;;;;;4916241;29;20514;-79
2021/10/24 03:18:42;;;;;;;0.00;0.00;;;5.20;99.90;;;;;;4915107;29;20040;-79
2021/10/24 03:21:07;;;;;;;0.25;0.25;;;5.10;99.90;;;;;;4919823;29;20087;-79
2021/10/24 03:23:33;;;;;;;0.20;0.15;;;5.10;99.90;;;;;;4919942;29;20039;-79
2021/10/24 03:25:59;;;;;;;0.00;0.00;;;5.10;99.90;;;;;;4920010;29;20082;-78
2021/10/24 03:28:25;;;;;;;0.00;0.00;;;5.10;99.90;;;;;;4919794;29;20470;-79
2021/10/24 03:30:51;;;;;;;0.00;0.00;;;5.10;99.90;;;;;;4919920;29;20024;-79
2021/10/24 03:33:17;;;;;;;0.00;0.00;;;5.10;99.90;;;;;;4919204;29;20024;-78
2021/10/24 03:35:43;;;;;;;0.10;0.10;;;5.00;99.90;;;;;;4919776;29;20024;-79
2021/10/24 03:38:09;;;;;;;0.00;0.00;;;5.00;99.90;;;;;;4920074;29;20427;-79
2021/10/24 03:40:36;;;;;;;0.00;0.00;;;5.00;99.90;;;;;;4919895;29;20055;-79
2021/10/24 03:43:01;;;;;;;0.00;0.00;;;5.00;99.90;;;;;;4917313;29;20028;-79
2021/10/24 03:45:27;;;;;;;2.38;0.75;;;5.00;99.90;;;;;;4934334;29;20079;-79
2021/10/24 03:47:53;;;;;;;0.00;0.00;;;5.00;99.90;;;;;;4919449;29;20175;-79
2021/10/24 03:50:19;;;;;;;0.10;0.10;;;5.00;99.90;;;;;;4919365;29;20031;-79
2021/10/24 03:52:44;;;;;;;1.00;0.30;;;5.00;99.90;;;;;;4917873;29;20028;-79
2021/10/24 03:55:12;;;;;;;0.00;0.00;;;5.00;99.90;;;;;;4934256;29;20028;-79
2021/10/24 03:57:39;;;;;;;0.05;0.05;;;5.00;99.90;;;;;;4919054;29;20505;-78
2021/10/24 04:00:05;;;;;;;0.03;0.03;;;5.00;99.90;;;;;;4919237;29;20024;-79
2021/10/24 04:02:32;;;;;;;0.00;0.00;;;5.00;99.90;;;;;;4919200;29;20044;-79
2021/10/24 04:04:58;;;;;;;0.08;0.08;;;5.00;99.90;;;;;;4933728;29;20566;-79
2021/10/24 04:07:23;;;;;;;0.70;0.20;;;5.00;99.90;;;;;;4933354;29;20135;-79
2021/10/24 04:09:49;;;;;;;0.00;0.00;;;4.90;99.90;;;;;;4917751;29;20025;-79
2021/10/24 04:12:15;;;;;;;0.00;0.00;;;4.90;99.90;;;;;;4917980;29;20028;-79
2021/10/24 04:14:41;;;;;;;0.00;0.00;;;4.90;99.90;;;;;;4919204;29;20062;-79
2021/10/24 04:17:08;;;;;;;0.00;0.00;;;4.90;99.90;;;;;;4918485;29;20032;-79
2021/10/24 04:19:34;;;;;;;0.00;0.00;;;4.80;99.90;;;;;;4918983;29;20031;-79
2021/10/24 04:21:59;;;;;;;1.25;0.35;;;4.80;99.90;;;;;;4917796;29;20487;-79
2021/10/24 04:24:28;;;;;;;0.10;0.10;;;4.80;99.90;;;;;;4918808;29;20495;-79
2021/10/24 04:26:55;;;;;;;0.20;0.20;;;4.70;99.90;;;;;;4918438;29;20070;-78
2021/10/24 04:29:20;;;;;;;0.25;0.25;;;4.70;99.90;;;;;;4933461;29;20111;-79
2021/10/24 04:31:46;;;;;;;0.20;0.20;;;4.70;99.90;;;;;;4917734;29;20487;-78
2021/10/24 04:34:12;;;;;;;0.00;0.00;;;4.70;99.90;;;;;;4919167;29;20071;-79
2021/10/24 04:36:37;;;;;;;0.00;0.00;;;4.60;99.90;;;;;;4918953;29;20039;-79
2021/10/24 04:39:03;;;;;;;0.00;0.00;;;4.60;99.90;;;;;;4918724;29;20024;-79
2021/10/24 04:41:29;;;;;;;0.10;0.10;;;4.50;99.90;;;;;;4916906;29;20028;-78
2021/10/24 04:43:55;;;;;;;0.28;0.20;;;4.60;99.90;;;;;;4918322;29;20056;-79
2021/10/24 04:46:20;;;;;;;0.75;0.47;;;4.60;99.90;;;;;;4917908;29;20471;-79
2021/10/24 04:48:46;;;;;;;0.00;0.00;;;4.60;99.90;;;;;;4918328;29;20021;-79
2021/10/24 04:51:11;;;;;;;0.30;0.30;;;4.60;99.90;;;;;;4916941;29;20159;-79
2021/10/24 04:53:37;;;;;;;0.40;0.40;;;4.60;99.90;;;;;;4918754;29;20384;-79
2021/10/24 04:56:03;;;;;;;0.00;0.00;;;4.60;99.90;;;;;;4918127;29;20041;-78
2021/10/24 04:58:29;;;;;;;1.75;0.43;;;4.60;99.90;;;;;;4918331;29;20032;-79
2021/10/24 05:00:54;;;;;;;0.00;0.00;;;4.60;99.90;;;;;;4918106;29;20028;-79
2021/10/24 05:03:20;;;;;;;0.00;0.00;;;4.70;99.90;;;;;;4918112;29;20082;-79
2021/10/24 05:05:47;;;;;;;9.23;0.52;;;4.60;99.90;;;;;;4931182;29;20055;-79
2021/10/24 05:08:13;;;;;;;0.00;0.00;;;4.60;99.90;;;;;;4919608;29;20055;-79
2021/10/24 05:10:41;;;;;;;5.25;0.52;;;4.60;99.90;;;;;;4935895;29;20032;-79
2021/10/24 05:13:07;;;;;;;0.10;0.10;;;4.60;99.90;;;;;;4936978;29;20099;-79
2021/10/24 05:15:33;;;;;;;0.00;0.00;;;4.60;99.90;;;;;;4936744;29;20016;-79
2021/10/24 05:17:59;;;;;;;0.00;0.00;;;4.60;99.90;;;;;;4936874;29;20031;-79
2021/10/24 05:20:24;;;;;;;0.65;0.65;;;4.60;99.90;;;;;;4936916;29;20446;-79
2021/10/24 05:22:50;;;;;;;4.78;0.43;;;4.70;99.90;;;;;;4936914;29;20479;-79
2021/10/24 05:25:16;;;;;;;0.00;0.00;;;4.60;99.90;;;;;;4936843;29;20036;-79
2021/10/24 05:27:42;;;;;;;0.00;0.00;;;4.60;99.90;;;;;;4936344;29;20103;-79
2021/10/24 05:30:08;;;;;;;0.25;0.25;;;4.60;99.90;;;;;;4936530;29;20035;-79
2021/10/24 05:32:34;;;;;;;0.10;0.10;;;4.60;99.90;;;;;;4938429;29;20394;-79
2021/10/24 05:35:00;;;;;;;0.00;0.00;;;4.50;99.90;;;;;;4936827;29;20034;-79
2021/10/24 05:37:25;;;;;;;0.00;0.00;;;4.50;99.90;;;;;;4931909;29;20491;-79
2021/10/24 05:39:51;;;;;;;0.00;0.00;;;4.50;99.90;;;;;;4919537;29;20055;-79
2021/10/24 05:42:17;;;;;;;0.00;0.00;;;4.60;99.90;;;;;;4931429;29;20050;-79
2021/10/24 05:44:43;;;;;;;1.65;0.38;;;4.60;99.90;;;;;;4917395;29;20440;-79
2021/10/24 05:47:09;;;;;;;0.00;0.00;;;4.60;99.90;;;;;;4917863;29;20047;-79
2021/10/24 05:49:35;;;;;;;1.08;0.43;;;4.60;99.90;;;;;;4935890;29;20028;-79
2021/10/24 05:52:00;;;;;;;0.00;0.00;;;4.60;99.90;;;;;;4933143;29;20027;-79
2021/10/24 05:54:26;;;;;;;0.10;0.10;;;4.60;99.90;;;;;;4936411;29;20027;-79
2021/10/24 05:56:52;;;;;;;0.60;0.40;;;4.60;99.90;;;;;;4936083;29;20398;-78
2021/10/24 05:59:18;;;;;;;0.10;0.10;;;4.70;99.90;;;;;;4935532;29;20067;-79
2021/10/24 06:01:43;;;;;;;0.43;0.43;;;4.70;99.90;;;;;;4936165;29;20032;-79
2021/10/24 06:04:09;;;;;;;0.98;0.98;;;4.70;99.90;;;;;;4936021;29;20031;-79
2021/10/24 06:06:35;;;;;;;0.75;0.38;;;4.70;99.90;;;;;;4936103;29;20398;-79
2021/10/24 06:09:01;;;;;;;0.00;0.00;;;4.70;99.90;;;;;;4935923;29;20376;-77
2021/10/24 06:11:33;;;;;;;0.00;0.00;;;4.60;99.90;;;;;;4934468;29;20023;-78
2021/10/24 06:13:59;;;;;;;0.00;0.00;;;4.60;99.90;;;;;;4935979;29;20511;-79
2021/10/24 06:16:25;;;;;;;0.00;0.00;;;4.60;99.90;;;;;;4935532;29;20027;-79
2021/10/24 06:18:51;;;;;;;0.00;0.00;;;4.60;99.90;;;;;;4935984;29;20036;-79
2021/10/24 06:21:17;;;;;;;0.00;0.00;;;4.60;99.90;;;;;;4936007;29;20027;-79
2021/10/24 06:23:43;;;;;;;0.00;0.00;;;4.70;99.90;;;;;;4935783;29;20038;-79
2021/10/24 06:26:08;;;;;;;0.10;0.10;;;4.60;99.90;;;;;;4935530;29;20038;-79
2021/10/24 06:28:34;;;;;;;1.08;0.47;;;4.60;99.90;;;;;;4935714;29;20056;-79
2021/10/24 06:31:00;;;;;;;0.00;0.00;;;4.60;99.90;;;;;;4936105;29;20451;-79
2021/10/24 06:33:26;;;;;;;2.17;0.52;;;4.60;99.90;;;;;;4935483;29;20034;-79
2021/10/24 06:35:52;;;;;;;0.32;0.32;;;4.60;99.90;;;;;;4934616;29;20028;-79
2021/10/24 06:38:19;;;;;;;4.72;1.17;;;4.60;99.90;;;;;;4935630;29;20031;-79
2021/10/24 06:40:46;;;;;;;0.35;0.22;;;4.60;99.90;;;;;;4918460;29;20027;-79
2021/10/24 06:43:12;;;;;;;0.22;0.10;;;4.70;99.90;;;;;;4935022;29;20035;-78
2021/10/24 06:45:37;;;;;;;0.63;0.28;;;4.70;99.90;;;;;;4934220;29;20028;-78
2021/10/24 06:48:04;;;;;;;0.08;0.08;;;4.70;99.90;;;;;;4935474;29;20024;-79
2021/10/24 06:50:30;;;;;;;0.00;0.00;;;4.70;99.90;;;;;;4933949;29;20059;-79
2021/10/24 06:52:58;;;;;;;0.00;0.00;;;4.80;99.90;;;;;;4928079;29;20062;-79
2021/10/24 06:55:24;;;;;;;0.30;0.30;;;4.80;99.90;;;;;;4940423;29;20016;-79
2021/10/24 06:57:56;;;;;;;1.48;0.60;;;4.80;99.90;;;;;;4941272;29;20031;-79
2021/10/24 07:00:23;;;;;;;1.02;0.73;;;4.80;99.90;;;;;;4941598;29;20506;-79
2021/10/24 07:02:50;;;;;;;0.17;0.17;;;4.80;99.90;;;;;;4940990;29;20034;-79
2021/10/24 07:05:16;;;;;;;0.00;0.00;;;4.90;99.90;;;;;;4941577;29;20083;-79
2021/10/24 07:07:45;;;;;;;0.20;0.20;;;4.90;99.90;;;;;;4941189;29;20034;-78
2021/10/24 07:10:13;;;;;;;0.00;0.00;;;5.00;99.90;;;;;;4939908;29;20012;-79
2021/10/24 07:12:39;;;;;;;0.03;0.03;;;5.00;99.90;;;;;;4940870;29;20055;-78
2021/10/24 07:15:09;;;;;;;1.40;0.85;;;5.10;99.90;;;;;;4942099;29;20399;-77
2021/10/24 07:17:35;;;;;;;0.90;0.52;;;5.10;99.90;;;;;;4940977;29;20076;-78
2021/10/24 07:20:02;;;;;;;0.00;0.00;;;5.20;99.90;;;;;;4924774;29;20035;-79
2021/10/24 07:22:28;;;;;;;0.00;0.00;;;5.20;99.90;;;;;;4924707;29;20147;-79
2021/10/24 07:24:54;;;;;;;0.10;0.10;;;5.30;99.90;;;;;;4941738;29;20102;-79
2021/10/24 07:27:19;;;;;;;0.00;0.00;;;5.40;99.90;;;;;;4941158;29;20044;-79
2021/10/24 07:29:45;;;;;;;0.15;0.15;;;5.50;99.90;;;;;;4941367;29;20118;-79
2021/10/24 07:32:11;;;;;;;0.00;0.00;;;5.60;99.90;;;;;;4941220;29;20034;-79
2021/10/24 07:34:36;;;;;;;0.00;0.00;;;5.70;99.90;;;;;;4941734;29;20027;-79
2021/10/24 07:37:02;;;;;;;0.55;0.30;;;5.80;99.90;;;;;;4924347;29;20059;-78
2021/10/24 07:39:28;;;;;;;0.28;0.28;;;5.90;99.90;;;;;;4941302;29;20402;-78
2021/10/24 07:41:54;;;;;;;0.00;0.00;;;6.10;99.90;;;;;;4923453;29;20027;-78
2021/10/24 07:44:20;;;;;;;1.27;0.95;;;6.30;99.90;;;;;;4941323;29;20517;-79
2021/10/24 07:46:46;;;;;;;0.00;0.00;;;6.50;99.90;;;;;;4924376;29;20064;-79
2021/10/24 07:49:13;;;;;;;0.38;0.35;;;7.00;99.90;;;;;;4940988;29;20028;-79
2021/10/24 07:51:38;;;;;;;0.30;0.30;;;7.70;99.90;;;;;;4939498;29;20126;-78
2021/10/24 07:54:05;;;;;;;0.73;0.17;;;8.30;99.90;;;;;;4941349;29;20481;-79
2021/10/24 07:56:38;;;;;;;0.40;0.40;;;8.40;99.90;;;;;;4941061;29;20038;-78
2021/10/24 07:59:04;;;;;;;0.00;0.00;;;8.30;99.90;;;;;;4924122;29;20380;-79
2021/10/24 08:01:37;;;;;;;0.10;0.10;;;8.90;99.90;;;;;;4941281;29;20158;-79
2021/10/24 08:04:05;;;;;;;0.00;0.00;;;9.70;99.90;;;;;;4924087;29;20023;-79
2021/10/24 08:06:32;;;;;;;4.68;0.40;;;9.30;99.90;;;;;;4939032;29;20039;-79
2021/10/24 08:08:59;;;;;;;0.47;0.20;;;9.00;99.90;;;;;;4938207;29;20537;-79
2021/10/24 08:11:25;;;;;;;0.15;0.15;;;8.80;99.90;;;;;;4936703;29;20027;-79
2021/10/24 08:13:51;;;;;;;0.13;0.13;;;8.70;99.90;;;;;;4936489;29;20051;-79
2021/10/24 08:16:17;;;;;;;0.10;0.10;;;8.80;99.90;;;;;;4937571;29;20071;-81
2021/10/24 08:18:43;;;;;;;2.05;0.68;;;9.00;99.90;;;;;;4937513;29;20031;-81
2021/10/24 08:21:08;;;;;;;5.72;1.67;;;9.20;99.90;;;;;;4936908;29;20035;-81
2021/10/24 08:23:34;;;;;;;0.00;0.00;;;9.40;99.90;;;;;;4937604;29;20091;-82
2021/10/24 08:26:00;;;;;;;0.00;0.00;;;9.60;99.90;;;;;;4938301;29;20030;-79
2021/10/24 08:28:25;;;;;;;0.20;0.13;;;9.90;99.90;;;;;;4936624;29;20115;-81
2021/10/24 08:30:52;;;;;;;0.10;0.10;;;10.10;99.90;;;;;;4937928;29;20024;-81
2021/10/24 08:33:18;;;;;;;0.32;0.32;;;10.60;99.90;;;;;;4946855;29;20031;-81
2021/10/24 08:35:44;;;;;;;0.20;0.20;;;11.10;99.90;;;;;;4937884;29;20554;-82
2021/10/24 08:38:11;;;;;;;0.00;0.00;;;11.30;99.90;;;;;;4937396;29;20063;-81
2021/10/24 08:40:40;;;;;;;0.10;0.10;;;11.50;99.90;;;;;;4937742;29;20026;-82
2021/10/24 08:43:18;;;;;;;1.65;0.55;;;11.70;99.90;;;;;;4937189;29;20117;-82
2021/10/24 08:45:45;;;;;;;0.35;0.15;;;11.70;99.90;;;;;;4937344;29;20051;-82
2021/10/24 08:48:10;;;;;;;0.10;0.10;;;11.60;99.90;;;;;;4937137;29;20067;-82
2021/10/24 08:50:36;;;;;;;0.00;0.00;;;11.20;99.90;;;;;;4937380;29;20027;-82
2021/10/24 08:53:06;;;;;;;1.65;0.13;;;11.00;99.90;;;;;;4934879;29;20024;-82
2021/10/24 08:55:31;;;;;;;0.35;0.05;;;11.10;99.90;;;;;;4936003;29;20086;-80
2021/10/24 08:57:58;;;;;;;0.00;0.00;;;11.30;99.90;;;;;;4936725;29;20024;-79
2021/10/24 09:00:24;;;;;;;0.00;0.00;;;11.50;99.90;;;;;;4937044;29;20106;-79
2021/10/24 09:03:03;;;;;;;0.17;0.17;;;11.70;99.90;;;;;;4935711;29;20194;-79
2021/10/24 09:05:34;;;;;;;1.65;0.40;;;11.70;99.90;;;;;;4935631;29;20575;-79
2021/10/24 09:08:00;;;;;;;0.03;0.03;;;11.90;99.90;;;;;;4936688;29;20028;-79
2021/10/24 09:10:43;;;;;;;0.15;0.15;;;12.00;99.90;;;;;;4937203;29;20034;-79
2021/10/24 09:13:14;;;;;;;1.20;0.60;;;12.10;99.90;;;;;;4935129;29;20119;-79
2021/10/24 09:15:52;;;;;;;0.20;0.15;;;12.40;99.90;;;;;;4936853;29;20502;-79
2021/10/24 09:18:21;;;;;;;1.35;0.90;;;12.20;99.90;;;;;;4936181;29;20517;-79
2021/10/24 09:20:47;;;;;;;0.10;0.10;;;12.40;99.90;;;;;;4936348;29;20043;-80
2021/10/24 09:23:15;;;;;;;0.20;0.13;;;13.20;99.90;;;;;;4936605;29;20490;-80
2021/10/24 09:25:56;;;;;;;0.00;0.00;;;14.30;99.90;;;;;;4936695;29;20498;-80
2021/10/24 09:28:26;;;;;;;15.20;0.55;;;14.40;99.90;;;;;;4936699;29;20067;-79
2021/10/24 09:31:03;;;;;;;1.85;0.30;;;14.00;99.90;;;;;;4936581;29;20024;-79
2021/10/24 09:33:43;;;;;;;0.32;0.32;;;13.60;99.90;;;;;;4936544;29;20019;-79
2021/10/24 09:36:08;;;;;;;0.17;0.17;;;13.40;99.90;;;;;;4935170;29;20039;-79
2021/10/24 09:38:39;;;;;;;0.30;0.10;;;13.30;99.90;;;;;;4936169;29;20027;-79
2021/10/24 09:41:05;;;;;;;0.10;0.10;;;13.50;99.90;;;;;;4935888;29;20030;-79
2021/10/24 09:43:32;;;;;;;0.08;0.08;;;13.60;99.90;;;;;;4931285;29;20483;-79
2021/10/24 09:45:57;;;;;;;1.45;0.95;;;13.80;99.90;;;;;;4917087;29;20415;-79
2021/10/24 09:48:25;;;;;;;0.75;0.10;;;13.90;99.90;;;;;;4927241;29;20028;-79
2021/10/24 09:50:54;;;;;;;1.20;0.65;;;14.20;99.90;;;;;;4935793;29;20391;-79
2021/10/24 09:53:26;;;;;;;0.40;0.40;;;14.70;99.90;;;;;;4935787;29;20116;-79
2021/10/24 09:56:00;;;;;;;0.35;0.28;;;15.10;99.90;;;;;;4936226;29;20029;-79
2021/10/24 09:58:30;;;;;;;0.43;0.43;;;14.90;99.90;;;;;;4934685;29;20443;-79
2021/10/24 10:00:57;;;;;;;0.82;0.10;;;14.90;99.90;;;;;;4935802;29;20047;-80
2021/10/24 10:03:26;;;;;;;0.00;0.00;;;14.70;99.90;;;;;;4935688;29;20032;-79
2021/10/24 10:05:53;;;;;;;1.17;0.13;;;15.00;99.90;;;;;;4935470;29;20083;-80
2021/10/24 10:08:18;;;;;;;0.10;0.10;;;15.00;99.90;;;;;;4918486;29;20398;-79
2021/10/24 10:10:49;;;;;;;0.13;0.13;;;15.00;99.90;;;;;;4934769;29;20028;-79
2021/10/24 10:13:20;;;;;;;0.03;0.03;;;14.90;99.90;;;;;;4917342;29;20110;-79
2021/10/24 10:15:48;;;;;;;0.10;0.10;;;14.90;99.90;;;;;;4935656;29;20038;-80
2021/10/24 10:18:14;;;;;;;0.00;0.00;;;15.00;99.90;;;;;;4935388;29;20036;-79
2021/10/24 10:20:49;;;;;;;0.10;0.10;;;15.10;99.90;;;;;;4935618;29;20043;-79
2021/10/24 10:23:16;;;;;;;0.00;0.00;;;15.30;99.90;;;;;;4935733;29;20035;-79
2021/10/24 10:25:43;;;;;;;0.10;0.10;;;15.30;99.90;;;;;;4935809;29;20031;-79
2021/10/24 10:28:13;;;;;;;0.15;0.05;;;15.40;99.90;;;;;;4917860;29;20042;-79
2021/10/24 10:30:45;;;;;;;0.00;0.00;;;15.60;99.90;;;;;;4934754;29;20487;-79
2021/10/24 10:33:30;;;;;;;3.72;0.95;;;15.80;99.90;;;;;;4934449;29;20395;-79
2021/10/24 10:35:56;;;;;;;0.00;0.00;;;15.90;99.90;;;;;;4935546;29;20032;-79
2021/10/24 10:38:43;;;;;;;0.80;0.40;;;15.80;99.90;;;;;;4918490;29;20031;-79
2021/10/24 10:41:13;;;;;;;1.08;0.15;;;15.70;99.90;;;;;;4934116;29;20107;-79
2021/10/24 10:43:40;;;;;;;0.20;0.10;;;15.70;99.90;;;;;;4930641;29;20020;-79
2021/10/24 10:46:06;;;;;;;0.82;0.22;;;15.70;99.90;;;;;;4916276;29;20492;-79
2021/10/24 10:48:36;;;;;;;0.90;0.88;;;15.60;99.90;;;;;;4927173;29;20056;-77
2021/10/24 10:51:24;;;;;;;0.30;0.30;;;15.50;99.90;;;;;;4933804;29;20031;-79
2021/10/24 10:53:53;;;;;;;0.00;0.00;;;15.50;99.90;;;;;;4935412;29;20023;-80
2021/10/24 10:56:23;;;;;;;0.00;0.00;;;15.70;99.90;;;;;;4935256;29;20036;-79
2021/10/24 10:58:53;;;;;;;0.10;0.10;;;16.00;99.90;;;;;;4933804;29;20115;-79
2021/10/24 11:01:24;;;;;;;0.22;0.22;;;16.30;99.90;;;;;;4935007;29;20466;-79
2021/10/24 11:03:51;;;;;;;0.00;0.00;;;16.50;99.90;;;;;;4935044;29;20024;-80
2021/10/24 11:06:23;;;;;;;0.70;0.65;;;16.60;99.90;;;;;;4934838;29;20048;-79
2021/10/24 11:08:54;;;;;;;0.00;0.00;;;16.80;99.90;;;;;;4934228;29;20055;-79
2021/10/24 11:11:41;;;;;;;0.00;0.00;;;16.70;99.90;;;;;;4917904;29;20575;-79
2021/10/24 11:14:16;;;;;;;0.28;0.28;;;16.80;99.90;;;;;;4932974;29;20027;-80
2021/10/24 11:16:49;;;;;;;0.82;0.17;;;16.90;99.90;;;;;;4935005;29;20031;-80
2021/10/24 11:22:01;;;;;;;0.00;0.00;;;16.80;99.90;;;;;;4935525;29;20035;-79
2021/10/24 11:24:36;;;;;;;0.35;0.35;;;16.90;99.90;;;;;;4935398;29;20526;-80
2021/10/24 11:27:04;;;;;;;0.00;0.00;;;17.00;99.90;;;;;;4935462;29;20106;-80
2021/10/24 11:29:30;;;;;;;0.08;0.08;;;17.00;99.90;;;;;;4934938;29;20036;-80
2021/10/24 11:32:26;;;;;;;0.00;0.00;;;16.90;99.90;;;;;;4917701;29;20401;-82
2021/10/24 11:34:54;;;;;;;0.55;0.55;;;16.90;99.90;;;;;;4935111;29;20031;-81
2021/10/24 11:37:49;;;;;;;1.45;1.05;;;17.10;99.90;;;;;;4934940;29;20104;-79
2021/10/24 11:40:25;;;;;;;1.95;0.70;;;17.20;99.90;;;;;;4928910;29;20125;-79
2021/10/24 11:43:15;;;;;;;1.35;0.75;;;17.30;99.60;;;;;;4933584;29;20020;-79
2021/10/24 11:45:45;;;;;;;0.10;0.10;;;17.60;99.80;;;;;;4919595;29;20462;-81
2021/10/24 11:48:21;;;;;;;0.00;0.00;;;17.70;99.20;;;;;;4926361;29;20462;-80
2021/10/24 11:51:03;;;;;;;0.00;0.00;;;17.50;99.50;;;;;;4938164;29;20048;-79
2021/10/24 11:53:36;;;;;;;0.05;0.05;;;17.70;99.40;;;;;;4938299;29;20103;-80
2021/10/24 11:56:16;;;;;;;0.00;0.00;;;17.60;99.00;;;;;;4921617;29;20122;-80
2021/10/24 12:01:27;;;;;;;1.25;0.22;;;17.50;99.80;;;;;;4938208;29;20518;-79
2021/10/24 12:03:57;;;;;;;0.00;0.00;;;17.70;99.90;;;;;;4938182;29;20031;-80
2021/10/24 12:06:52;;;;;;;0.05;0.05;;;17.70;99.90;;;;;;4933371;29;20116;-82
2021/10/24 12:09:38;;;;;;;0.00;0.00;;;17.60;99.90;;;;;;4918718;29;20500;-79
2021/10/24 12:12:07;;;;;;;0.10;0.10;;;17.70;99.80;;;;;;4933387;29;20028;-80
2021/10/24 12:14:32;;;;;;;0.10;0.10;;;17.80;99.90;;;;;;4917860;29;20031;-80
2021/10/24 12:16:58;;;;;;;0.10;0.10;;;17.90;99.90;;;;;;4918478;29;20040;-79
2021/10/24 12:19:32;;;;;;;0.00;0.00;;;18.00;99.90;;;;;;4918805;29;20039;-80
2021/10/24 12:22:00;;;;;;;7.00;2.35;;;18.10;99.90;;;;;;4918729;29;20515;-80
2021/10/24 12:24:30;;;;;;;0.00;0.00;;;18.00;99.90;;;;;;4917380;29;20039;-80
2021/10/24 12:27:08;;;;;;;0.00;0.00;;;17.80;99.90;;;;;;4918948;29;20043;-80
2021/10/24 12:29:34;;;;;;;0.10;0.00;;;17.80;99.90;;;;;;4918596;29;20029;-80
2021/10/24 12:32:12;;;;;;;10.02;0.30;;;18.00;99.90;;;;;;4918286;29;20027;-80
2021/10/24 12:34:56;;;;;;;0.00;0.00;;;18.00;99.80;;;;;;4899989;29;20104;-80
2021/10/24 12:37:22;;;;;;;0.00;0.00;;;17.80;99.90;;;;;;4899868;29;20503;-80
2021/10/24 12:39:48;;;;;;;0.10;0.10;;;17.90;99.40;;;;;;4899406;29;20108;-79
2021/10/24 12:42:18;;;;;;;0.10;0.10;;;18.20;99.50;;;;;;4900563;29;20519;-80
2021/10/24 12:44:43;;;;;;;0.00;0.00;;;18.30;99.80;;;;;;4929643;29;20032;-79
2021/10/24 12:47:15;;;;;;;0.77;0.25;;;18.10;99.70;;;;;;4899841;29;20032;-79
2021/10/24 12:49:55;;;;;;;0.00;0.00;;;18.10;99.90;;;;;;4916853;29;20020;-79
2021/10/24 12:52:21;;;;;;;0.55;0.20;;;18.10;99.90;;;;;;4917262;29;20391;-80
2021/10/24 12:54:58;;;;;;;0.03;0.00;;;18.10;99.30;;;;;;4918341;29;20027;-80
2021/10/24 12:57:24;;;;;;;0.30;0.30;;;18.20;98.60;;;;;;4918065;29;20028;-80
2021/10/24 12:59:50;;;;;;;0.03;0.03;;;18.40;98.50;;;;;;4916482;29;20403;-79
2021/10/24 13:02:16;;;;;;;0.00;0.00;;;18.50;98.30;;;;;;4918096;29;20024;-80